createdAt,value
2018-01-13T00:01:14.169Z,59.83
2018-01-13T00:03:40.103Z,50.33
2018-01-13T00:06:06.073Z,57.63
2018-01-13T00:08:32.077Z,61.67
2018-01-13T00:10:58.011Z,51.03
2018-01-13T00:13:23.990Z,50.53
2018-01-13T00:15:49.964Z,49.83
2018-01-13T00:18:16.706Z,59.53
2018-01-13T00:20:43.451Z,62.17
2018-01-13T00:23:09.383Z,53.57
2018-01-13T00:25:35.375Z,49.67
2018-01-13T00:28:01.312Z,54.37
2018-01-13T00:30:27.284Z,54.73
2018-01-13T00:32:53.246Z,52.43
2018-01-13T00:35:19.956Z,50.97
2018-01-13T00:37:45.923Z,53.83
2018-01-13T00:40:12.667Z,50.97
2018-01-13T00:42:38.611Z,48.93
2018-01-13T00:45:04.535Z,51.80
2018-01-13T00:47:30.521Z,43.63
2018-01-13T00:49:56.461Z,42.27
2018-01-13T00:52:22.415Z,49.63
2018-01-13T00:54:48.424Z,52.03
2018-01-13T00:57:14.384Z,41.30
2018-01-13T00:59:40.347Z,47.70
2018-01-13T01:02:06.279Z,53.77
2018-01-13T01:04:32.240Z,46.20
2018-01-13T01:06:58.925Z,46.50
2018-01-13T01:09:24.926Z,47.13
2018-01-13T01:11:51.635Z,43.03
2018-01-13T01:14:17.606Z,43.70
2018-01-13T01:16:43.600Z,55.33
2018-01-13T01:19:09.576Z,49.53
2018-01-13T01:21:35.747Z,52.47
2018-01-13T01:24:01.711Z,63.37
2018-01-13T01:26:27.639Z,50.63
2018-01-13T01:28:53.624Z,53.30
2018-01-13T01:31:19.640Z,45.97
2018-01-13T01:33:45.579Z,48.67
2018-01-13T01:36:11.577Z,50.17
2018-01-13T01:38:37.516Z,51.07
2018-01-13T01:41:03.487Z,53.40
2018-01-13T01:43:29.448Z,53.07
2018-01-13T01:45:56.199Z,54.33
2018-01-13T01:48:24.763Z,55.23
2018-01-13T01:50:50.723Z,51.50
2018-01-13T01:53:17.451Z,46.47
2018-01-13T01:55:43.419Z,56.97
2018-01-13T01:58:10.091Z,48.77
2018-01-13T02:00:36.047Z,55.17
2018-01-13T02:03:02.031Z,52.20
2018-01-13T02:05:28.713Z,55.33
2018-01-13T02:07:54.689Z,63.80
2018-01-13T02:10:20.626Z,51.27
2018-01-13T02:12:46.603Z,50.27
2018-01-13T02:15:13.297Z,54.40
2018-01-13T02:17:39.289Z,47.70
2018-01-13T02:20:06.019Z,49.13
2018-01-13T02:22:31.960Z,54.00
2018-01-13T02:24:57.940Z,47.03
2018-01-13T02:27:23.869Z,50.20
2018-01-13T02:29:49.855Z,51.20
2018-01-13T02:32:15.837Z,51.47
2018-01-13T02:34:41.784Z,49.17
2018-01-13T02:37:07.752Z,44.50
2018-01-13T02:39:33.744Z,50.87
2018-01-13T02:41:59.732Z,46.37
2018-01-13T02:44:25.686Z,61.30
2018-01-13T02:46:51.629Z,60.67
2018-01-13T02:49:18.331Z,53.80
2018-01-13T02:51:44.264Z,61.83
2018-01-13T02:54:10.247Z,61.50
2018-01-13T02:56:36.232Z,57.17
2018-01-13T02:59:02.209Z,55.20
2018-01-13T03:01:28.143Z,59.30
2018-01-13T03:03:54.075Z,53.77
2018-01-13T03:06:20.048Z,50.90
2018-01-13T03:08:45.983Z,55.63
2018-01-13T03:11:11.944Z,53.63
2018-01-13T03:13:37.925Z,50.47
2018-01-13T03:16:03.972Z,52.80
2018-01-13T03:18:30.707Z,51.80
2018-01-13T03:20:56.679Z,53.70
2018-01-13T03:23:22.608Z,56.00
2018-01-13T03:25:49.349Z,56.57
2018-01-13T03:28:16.069Z,53.13
2018-01-13T03:30:42.000Z,56.50
2018-01-13T03:33:08.008Z,53.73
2018-01-13T03:35:34.005Z,58.90
2018-01-13T03:38:00.701Z,57.93
2018-01-13T03:40:26.683Z,50.80
2018-01-13T03:42:52.648Z,44.70
2018-01-13T03:45:19.320Z,58.70
2018-01-13T03:47:45.279Z,52.40
2018-01-13T03:50:11.248Z,53.00
2018-01-13T03:52:37.927Z,47.23
2018-01-13T03:55:03.895Z,58.20
2018-01-13T03:57:29.839Z,62.03
2018-01-13T03:59:55.775Z,49.60
2018-01-13T04:02:21.740Z,60.83
2018-01-13T04:04:48.448Z,49.43
2018-01-13T04:07:14.483Z,45.50
2018-01-13T04:09:40.427Z,43.70
2018-01-13T04:12:06.359Z,49.53
2018-01-13T04:14:32.328Z,45.93
2018-01-13T04:16:58.311Z,58.90
2018-01-13T04:19:24.275Z,49.77
2018-01-13T04:21:50.220Z,52.83
2018-01-13T04:24:16.259Z,50.57
2018-01-13T04:26:42.235Z,51.67
2018-01-13T04:29:08.180Z,50.27
2018-01-13T04:31:34.156Z,54.40
2018-01-13T04:34:00.101Z,57.50
2018-01-13T04:36:26.049Z,59.00
2018-01-13T04:38:52.765Z,59.20
2018-01-13T04:41:18.771Z,52.17
2018-01-13T04:43:44.799Z,58.27
2018-01-13T04:46:10.736Z,55.83
2018-01-13T04:48:36.749Z,60.30
2018-01-13T04:51:02.684Z,64.60
2018-01-13T04:53:28.613Z,58.87
2018-01-13T04:55:54.580Z,66.50
2018-01-13T04:58:20.570Z,61.10
2018-01-13T05:00:46.624Z,53.40
2018-01-13T05:03:12.579Z,59.93
2018-01-13T05:05:39.251Z,60.07
2018-01-13T05:08:05.226Z,57.57
2018-01-13T05:10:31.168Z,61.27
2018-01-13T05:12:57.108Z,64.27
2018-01-13T05:15:23.079Z,71.83
2018-01-13T05:17:49.133Z,56.73
2018-01-13T05:20:15.163Z,61.23
2018-01-13T05:22:41.103Z,68.47
2018-01-13T05:25:07.052Z,69.87
2018-01-13T05:27:33.024Z,60.13
2018-01-13T05:29:58.959Z,70.17
2018-01-13T05:32:24.939Z,62.37
2018-01-13T05:34:50.897Z,70.53
2018-01-13T05:37:16.910Z,71.33
2018-01-13T05:39:42.897Z,70.70
2018-01-13T05:42:08.828Z,58.60
2018-01-13T05:44:34.812Z,67.67
2018-01-13T05:47:00.743Z,58.67
2018-01-13T05:49:26.716Z,56.90
2018-01-13T05:51:52.651Z,61.93
2018-01-13T05:54:18.666Z,53.10
2018-01-13T05:56:44.639Z,59.03
2018-01-13T05:59:10.563Z,53.13
2018-01-13T06:01:36.540Z,48.13
2018-01-13T06:04:03.492Z,47.60
2018-01-13T06:06:30.228Z,49.40
2018-01-13T06:08:56.191Z,46.70
2018-01-13T06:11:22.886Z,47.57
2018-01-13T06:13:48.871Z,52.07
2018-01-13T06:16:14.900Z,44.27
2018-01-13T06:18:41.655Z,47.83
2018-01-13T06:21:07.593Z,47.30
2018-01-13T06:23:33.560Z,41.20
2018-01-13T06:25:59.501Z,43.37
2018-01-13T06:28:25.468Z,38.50
2018-01-13T06:30:51.412Z,43.27
2018-01-13T06:33:17.385Z,46.50
2018-01-13T06:35:44.127Z,46.53
2018-01-13T06:38:10.846Z,53.67
2018-01-13T06:40:36.820Z,41.93
2018-01-13T06:43:03.552Z,41.30
2018-01-13T06:45:29.488Z,38.07
2018-01-13T06:47:55.428Z,36.70
2018-01-13T06:50:21.450Z,31.17
2018-01-13T06:52:47.900Z,42.93
2018-01-13T06:55:13.885Z,44.83
2018-01-13T06:57:39.827Z,38.20
2018-01-13T07:00:05.821Z,35.17
2018-01-13T07:02:31.801Z,37.83
2018-01-13T07:04:57.730Z,39.10
2018-01-13T07:07:23.658Z,36.07
2018-01-13T07:09:49.619Z,31.60
2018-01-13T07:12:15.595Z,36.23
2018-01-13T07:14:41.563Z,34.93
2018-01-13T07:17:07.535Z,35.07
2018-01-13T07:19:33.504Z,33.50
2018-01-13T07:21:59.495Z,30.97
2018-01-13T07:24:25.440Z,30.70
2018-01-13T07:26:51.400Z,30.43
2018-01-13T07:29:17.393Z,32.73
2018-01-13T07:31:43.382Z,26.43
2018-01-13T07:34:09.355Z,33.77
2018-01-13T07:36:35.293Z,38.10
2018-01-13T07:39:01.245Z,31.50
2018-01-13T07:41:27.221Z,27.97
2018-01-13T07:43:53.159Z,28.33
2018-01-13T07:46:20.627Z,29.53
2018-01-13T07:48:46.610Z,29.37
2018-01-13T07:51:12.627Z,30.27
2018-01-13T07:53:38.599Z,26.17
2018-01-13T07:56:04.565Z,28.00
2018-01-13T07:58:30.548Z,29.73
2018-01-13T08:00:56.483Z,30.63
2018-01-13T08:03:22.447Z,29.60
2018-01-13T08:05:48.443Z,25.83
2018-01-13T08:08:14.409Z,29.90
2018-01-13T08:10:40.392Z,27.50
2018-01-13T08:13:07.080Z,31.80
2018-01-13T08:15:33.047Z,40.83
2018-01-13T08:17:59.020Z,49.47
2018-01-13T08:20:25.700Z,108.60
2018-01-13T08:22:51.663Z,143.90
2018-01-13T08:25:17.686Z,87.93
2018-01-13T08:27:43.625Z,70.67
2018-01-13T08:30:09.602Z,33.13
2018-01-13T08:32:35.548Z,26.40
2018-01-13T08:35:02.260Z,24.93
2018-01-13T08:37:28.240Z,33.00
2018-01-13T08:39:54.921Z,29.63
2018-01-13T08:42:20.860Z,26.73
2018-01-13T08:44:46.899Z,24.83
2018-01-13T08:47:12.836Z,28.83
2018-01-13T08:49:38.801Z,27.17
2018-01-13T08:52:04.771Z,24.40
2018-01-13T08:54:31.647Z,30.13
2018-01-13T08:56:57.580Z,21.80
2018-01-13T08:59:23.519Z,26.43
2018-01-13T09:04:45.047Z,25.20
2018-01-13T09:07:11.035Z,26.90
2018-01-13T09:09:36.968Z,22.13
2018-01-13T09:12:02.899Z,24.87
2018-01-13T09:14:28.874Z,22.70
2018-01-13T09:16:54.825Z,22.67
2018-01-13T09:19:20.819Z,21.77
2018-01-13T09:21:46.783Z,22.53
2018-01-13T09:24:12.753Z,24.63
2018-01-13T09:26:39.478Z,24.10
2018-01-13T09:29:05.422Z,23.43
2018-01-13T09:31:31.360Z,21.77
2018-01-13T09:33:57.344Z,19.40
2018-01-13T09:36:23.327Z,23.90
2018-01-13T09:38:49.331Z,27.10
2018-01-13T09:41:15.305Z,20.17
2018-01-13T09:43:41.256Z,24.60
2018-01-13T09:46:07.940Z,22.50
2018-01-13T09:48:33.933Z,23.73
2018-01-13T09:50:59.869Z,22.23
2018-01-13T09:53:26.579Z,23.07
2018-01-13T09:55:52.559Z,24.57
2018-01-13T09:58:19.354Z,30.57
2018-01-13T10:00:45.319Z,25.10
2018-01-13T10:03:11.256Z,39.63
2018-01-13T10:05:37.228Z,48.20
2018-01-13T10:08:03.964Z,21.73
2018-01-13T10:10:30.726Z,40.83
2018-01-13T10:12:57.416Z,44.27
2018-01-13T10:15:23.384Z,38.33
2018-01-13T10:17:49.328Z,63.30
2018-01-13T10:20:15.339Z,25.57
2018-01-13T10:22:41.275Z,20.50
2018-01-13T10:25:07.255Z,20.97
2018-01-13T10:27:33.965Z,89.00
2018-01-13T10:29:59.966Z,158.33
2018-01-13T10:32:25.972Z,69.83
2018-01-13T10:34:52.699Z,27.70
2018-01-13T10:37:18.681Z,49.13
2018-01-13T10:39:44.636Z,23.40
2018-01-13T10:42:10.607Z,27.90
2018-01-13T10:44:36.556Z,22.83
2018-01-13T10:47:02.536Z,22.77
2018-01-13T10:49:28.516Z,23.63
2018-01-13T10:51:54.463Z,27.90
2018-01-13T10:54:20.437Z,20.90
2018-01-13T10:56:46.415Z,23.67
2018-01-13T10:59:12.343Z,25.10
2018-01-13T11:01:38.328Z,22.63
2018-01-13T11:04:05.061Z,24.27
2018-01-13T11:06:31.069Z,23.47
2018-01-13T11:08:57.053Z,28.10
2018-01-13T11:11:23.792Z,22.20
2018-01-13T11:13:50.556Z,24.83
2018-01-13T11:16:17.243Z,24.27
2018-01-13T11:18:43.212Z,24.63
2018-01-13T11:21:09.184Z,27.10
2018-01-13T11:23:35.952Z,24.67
2018-01-13T11:26:01.967Z,24.63
2018-01-13T11:28:28.664Z,29.10
2018-01-13T11:30:54.636Z,29.23
2018-01-13T11:33:20.580Z,29.07
2018-01-13T11:35:46.609Z,25.63
2018-01-13T11:38:12.557Z,21.90
2018-01-13T11:40:38.574Z,27.40
2018-01-13T11:43:04.551Z,28.20
2018-01-13T11:45:30.569Z,31.50
2018-01-13T11:47:57.292Z,27.80
2018-01-13T11:50:23.227Z,25.00
2018-01-13T11:52:49.205Z,28.43
2018-01-13T11:55:15.932Z,26.97
2018-01-13T11:57:41.876Z,27.07
2018-01-13T12:00:07.844Z,27.80
2018-01-13T12:02:33.801Z,26.37
2018-01-13T12:04:59.850Z,28.47
2018-01-13T12:07:25.796Z,28.53
2018-01-13T12:09:51.783Z,26.03
2018-01-13T12:12:17.729Z,28.60
2018-01-13T12:14:43.667Z,27.87
2018-01-13T12:17:09.787Z,26.50
2018-01-13T12:19:36.463Z,28.63
2018-01-13T12:22:02.483Z,24.87
2018-01-13T12:24:28.464Z,28.70
2018-01-13T12:26:54.404Z,30.03
2018-01-13T12:29:20.403Z,28.03
2018-01-13T12:31:46.352Z,26.73
2018-01-13T12:34:12.324Z,26.03
2018-01-13T12:36:38.268Z,26.37
2018-01-13T12:39:04.242Z,27.20
2018-01-13T12:41:30.691Z,27.20
2018-01-13T12:43:56.627Z,28.13
2018-01-13T12:46:22.597Z,28.70
2018-01-13T12:48:48.560Z,28.67
2018-01-13T12:51:15.272Z,24.93
2018-01-13T12:53:41.245Z,27.47
2018-01-13T12:56:07.947Z,29.73
2018-01-13T12:58:33.959Z,28.57
2018-01-13T13:00:59.989Z,27.17
2018-01-13T13:03:25.923Z,28.93
2018-01-13T13:05:52.630Z,25.77
2018-01-13T13:08:18.578Z,29.40
2018-01-13T13:10:44.551Z,29.40
2018-01-13T13:13:10.497Z,27.47
2018-01-13T13:15:36.436Z,33.13
2018-01-13T13:18:02.453Z,26.43
2018-01-13T13:20:29.177Z,28.20
2018-01-13T13:22:55.127Z,36.70
2018-01-13T13:25:21.848Z,28.37
2018-01-13T13:27:47.792Z,39.27
2018-01-13T13:30:13.731Z,39.60
2018-01-13T13:32:39.709Z,46.10
2018-01-13T13:35:05.665Z,56.30
2018-01-13T13:37:31.689Z,29.50
2018-01-13T13:39:57.690Z,30.60
2018-01-13T13:42:23.632Z,28.07
2018-01-13T13:44:50.371Z,28.33
2018-01-13T13:47:16.331Z,24.60
2018-01-13T13:49:43.008Z,27.03
2018-01-13T13:52:09.017Z,28.03
2018-01-13T13:54:35.750Z,26.93
2018-01-13T13:57:01.933Z,32.43
2018-01-13T13:59:27.879Z,31.47
2018-01-13T14:01:53.819Z,29.77
2018-01-13T14:04:19.802Z,34.30
2018-01-13T14:06:46.492Z,29.50
2018-01-13T14:09:12.494Z,24.80
2018-01-13T14:11:39.172Z,30.50
2018-01-13T14:14:05.160Z,33.23
2018-01-13T14:16:31.209Z,25.17
2018-01-13T14:18:57.181Z,24.13
2018-01-13T14:21:23.184Z,22.40
2018-01-13T14:23:49.156Z,26.37
2018-01-13T14:26:15.097Z,25.43
2018-01-13T14:28:41.045Z,26.83
2018-01-13T14:31:07.015Z,23.77
2018-01-13T14:33:32.968Z,24.93
2018-01-13T14:35:59.779Z,24.60
2018-01-13T14:38:25.688Z,21.83
2018-01-13T14:40:51.624Z,21.17
2018-01-13T14:43:17.587Z,21.60
2018-01-13T14:45:43.523Z,23.60
2018-01-13T14:48:09.473Z,27.33
2018-01-13T14:50:35.472Z,26.13
2018-01-13T14:53:01.492Z,28.37
2018-01-13T14:55:27.468Z,24.50
2018-01-13T14:57:53.412Z,24.17
2018-01-13T15:00:19.358Z,21.83
2018-01-13T15:02:45.324Z,23.60
2018-01-13T15:05:12.010Z,27.20
2018-01-13T15:07:37.972Z,20.47
2018-01-13T15:10:03.917Z,19.60
2018-01-13T15:12:29.953Z,17.73
2018-01-13T15:14:56.686Z,16.77
2018-01-13T15:17:22.668Z,17.87
2018-01-13T15:19:49.460Z,22.90
2018-01-13T15:22:15.486Z,21.93
2018-01-13T15:24:41.432Z,28.03
2018-01-13T15:27:07.419Z,25.57
2018-01-13T15:29:34.151Z,24.80
2018-01-13T15:32:00.129Z,23.80
2018-01-13T15:34:26.108Z,21.90
2018-01-13T15:36:52.125Z,23.87
2018-01-13T15:39:18.068Z,21.80
2018-01-13T15:41:44.019Z,24.30
2018-01-13T15:44:09.998Z,25.73
2018-01-13T15:46:36.866Z,25.63
2018-01-13T15:49:02.828Z,22.47
2018-01-13T15:51:28.775Z,23.80
2018-01-13T15:53:54.822Z,25.67
2018-01-13T15:56:20.812Z,22.53
2018-01-13T15:58:46.781Z,20.83
2018-01-13T16:01:12.790Z,22.23
2018-01-13T16:03:38.778Z,24.17
2018-01-13T16:06:04.759Z,27.93
2018-01-13T16:08:30.712Z,27.63
2018-01-13T16:10:56.676Z,21.70
2018-01-13T16:13:22.628Z,26.70
2018-01-13T16:15:49.351Z,23.37
2018-01-13T16:18:15.334Z,27.47
2018-01-13T16:20:41.277Z,46.73
2018-01-13T16:23:07.318Z,30.47
2018-01-13T16:25:33.309Z,29.00
2018-01-13T16:27:59.325Z,28.50
2018-01-13T16:30:25.264Z,29.97
2018-01-13T16:32:51.256Z,31.80
2018-01-13T16:35:17.232Z,25.63
2018-01-13T16:37:43.168Z,27.93
2018-01-13T16:40:09.182Z,23.57
2018-01-13T16:42:35.150Z,23.33
2018-01-13T16:45:01.116Z,24.43
2018-01-13T16:47:27.834Z,28.80
2018-01-13T16:49:53.771Z,21.17
2018-01-13T16:52:19.723Z,24.50
2018-01-13T16:54:45.700Z,27.33
2018-01-13T16:57:11.723Z,26.40
2018-01-13T16:59:37.695Z,26.17
2018-01-13T17:02:03.674Z,25.40
2018-01-13T17:04:30.398Z,28.03
2018-01-13T17:06:56.493Z,25.00
2018-01-13T17:09:22.455Z,24.63
2018-01-13T17:11:48.443Z,18.90
2018-01-13T17:14:14.433Z,21.00
2018-01-13T17:16:40.375Z,20.90
2018-01-13T17:19:06.343Z,24.13
2018-01-13T17:21:33.115Z,23.83
2018-01-13T17:23:59.837Z,20.67
2018-01-13T17:26:25.861Z,22.87
2018-01-13T17:28:51.879Z,25.43
2018-01-13T17:31:17.885Z,25.33
2018-01-13T17:33:43.819Z,25.07
2018-01-13T17:36:09.827Z,22.13
2018-01-13T17:38:35.759Z,31.97
2018-01-13T17:41:01.693Z,24.50
2018-01-13T17:43:27.706Z,23.60
2018-01-13T17:45:53.706Z,19.87
2018-01-13T17:48:19.672Z,20.13
2018-01-13T17:50:45.642Z,20.57
2018-01-13T17:53:11.571Z,30.50
2018-01-13T17:55:37.528Z,25.00
2018-01-13T17:58:04.212Z,29.30
2018-01-13T18:00:30.180Z,30.47
2018-01-13T18:02:56.202Z,27.47
2018-01-13T18:05:22.265Z,25.87
2018-01-13T18:07:48.211Z,24.53
2018-01-13T18:10:14.974Z,29.90
2018-01-13T18:12:41.655Z,38.93
2018-01-13T18:15:07.594Z,32.30
2018-01-13T18:17:33.555Z,25.77
2018-01-13T18:19:59.545Z,29.70
2018-01-13T18:22:26.315Z,28.40
2018-01-13T18:24:52.347Z,27.93
2018-01-13T18:27:18.288Z,26.50
2018-01-13T18:29:44.339Z,20.83
2018-01-13T18:32:10.328Z,27.27
2018-01-13T18:34:37.036Z,20.73
2018-01-13T18:37:03.022Z,28.20
2018-01-13T18:39:29.758Z,30.17
2018-01-13T18:41:55.771Z,23.40
2018-01-13T18:44:21.794Z,23.37
2018-01-13T18:46:47.773Z,28.53
2018-01-13T18:49:13.740Z,21.93
2018-01-13T18:51:39.910Z,32.00
2018-01-13T18:54:05.885Z,23.80
2018-01-13T18:56:32.563Z,22.60
2018-01-13T18:58:58.585Z,22.43
2018-01-13T19:01:25.315Z,30.20
2018-01-13T19:03:51.330Z,25.47
2018-01-13T19:06:17.314Z,26.13
2018-01-13T19:08:44.093Z,25.30
2018-01-13T19:11:10.109Z,23.60
2018-01-13T19:13:36.871Z,23.77
2018-01-13T19:16:02.881Z,22.70
2018-01-13T19:18:28.918Z,21.40
2018-01-13T19:20:54.916Z,22.60
2018-01-13T19:23:20.924Z,21.20
2018-01-13T19:25:46.901Z,24.20
2018-01-13T19:28:12.926Z,19.50
2018-01-13T19:30:38.901Z,25.17
2018-01-13T19:33:05.579Z,24.30
2018-01-13T19:35:31.548Z,21.40
2018-01-13T19:37:57.562Z,22.73
2018-01-13T19:40:23.625Z,25.20
2018-01-13T19:42:49.651Z,22.00
2018-01-13T19:45:15.660Z,20.57
2018-01-13T19:47:41.627Z,24.70
2018-01-13T19:50:07.643Z,25.30
2018-01-13T19:52:33.673Z,19.53
2018-01-13T19:54:59.671Z,22.43
2018-01-13T19:57:25.721Z,22.73
2018-01-13T19:59:52.529Z,22.37
2018-01-13T20:02:18.505Z,21.83
2018-01-13T20:04:45.220Z,22.27
2018-01-13T20:07:11.198Z,20.50
2018-01-13T20:09:37.949Z,23.37
2018-01-13T20:12:03.884Z,26.97
2018-01-13T20:14:30.655Z,26.07
2018-01-13T20:16:57.433Z,20.90
2018-01-13T20:19:23.514Z,24.13
2018-01-13T20:21:49.512Z,21.30
2018-01-13T20:24:15.530Z,21.30
2018-01-13T20:26:41.506Z,21.77
2018-01-13T20:29:07.537Z,16.97
2018-01-13T20:31:33.476Z,20.70
2018-01-13T20:33:59.471Z,18.87
2018-01-13T20:36:25.548Z,24.17
2018-01-13T20:38:51.575Z,21.83
2018-01-13T20:41:17.565Z,22.97
2018-01-13T20:43:44.295Z,24.60
2018-01-13T20:46:10.319Z,20.37
2018-01-13T20:48:36.358Z,16.67
2018-01-13T20:51:02.365Z,22.60
2018-01-13T20:53:28.367Z,20.43
2018-01-13T20:55:55.108Z,17.77
2018-01-13T20:58:21.089Z,17.80
2018-01-13T21:00:47.151Z,22.00
2018-01-13T21:03:13.154Z,23.40
2018-01-13T21:05:39.147Z,24.07
2018-01-13T21:08:05.153Z,18.47
2018-01-13T21:10:31.130Z,20.60
2018-01-13T21:12:57.889Z,22.87
2018-01-13T21:15:24.713Z,17.30
2018-01-13T21:17:50.713Z,20.67
2018-01-13T21:20:16.732Z,17.83
2018-01-13T21:22:42.754Z,16.53
2018-01-13T21:25:09.436Z,21.40
2018-01-13T21:27:35.468Z,21.17
2018-01-13T21:30:01.464Z,18.93
2018-01-13T21:32:27.468Z,24.13
2018-01-13T21:34:53.521Z,18.57
2018-01-13T21:37:19.498Z,22.67
2018-01-13T21:39:46.267Z,18.37
2018-01-13T21:42:12.246Z,18.13
2018-01-13T21:44:38.226Z,24.10
2018-01-13T21:47:04.191Z,22.00
2018-01-13T21:49:30.176Z,17.70
2018-01-13T21:51:56.202Z,21.77
2018-01-13T21:54:22.907Z,18.33
2018-01-13T21:56:48.936Z,25.83
2018-01-13T21:59:15.003Z,20.40
2018-01-13T22:01:40.990Z,20.10
2018-01-13T22:04:07.784Z,21.27
2018-01-13T22:06:33.790Z,22.00
2018-01-13T22:08:59.825Z,21.30
2018-01-13T22:11:25.820Z,27.57
2018-01-13T22:13:51.948Z,22.87
2018-01-13T22:16:17.939Z,20.53
2018-01-13T22:18:43.932Z,24.07
2018-01-13T22:21:09.936Z,21.87
2018-01-13T22:23:35.914Z,27.20
2018-01-13T22:26:01.930Z,24.33
2018-01-13T22:28:27.923Z,22.40
2018-01-13T22:30:53.915Z,23.67
2018-01-13T22:33:19.935Z,24.33
2018-01-13T22:35:45.880Z,27.43
2018-01-13T22:38:11.863Z,22.10
2018-01-13T22:40:37.882Z,25.67
2018-01-13T22:43:04.677Z,25.90
2018-01-13T22:45:30.702Z,27.87
2018-01-13T22:47:56.679Z,23.80
2018-01-13T22:50:22.690Z,32.77
2018-01-13T22:52:48.673Z,33.30
2018-01-13T22:55:14.697Z,26.47
2018-01-13T22:57:40.687Z,27.23
2018-01-13T23:00:06.696Z,29.93
2018-01-13T23:02:33.487Z,31.43
2018-01-13T23:04:59.434Z,29.70
2018-01-13T23:07:25.426Z,29.57
2018-01-13T23:09:51.438Z,29.83
2018-01-13T23:12:17.405Z,38.17
2018-01-13T23:14:43.398Z,39.00
2018-01-13T23:17:09.378Z,33.17
2018-01-13T23:19:35.376Z,31.40
2018-01-13T23:22:01.385Z,30.43
2018-01-13T23:24:27.485Z,26.67
2018-01-13T23:26:53.445Z,34.00
2018-01-13T23:29:19.423Z,34.10
2018-01-13T23:31:45.437Z,30.50
2018-01-13T23:34:11.473Z,37.13
2018-01-13T23:36:37.415Z,27.57
2018-01-13T23:39:03.371Z,30.47
2018-01-13T23:41:29.438Z,30.87
2018-01-13T23:43:55.474Z,34.70
2018-01-13T23:46:21.563Z,36.60
2018-01-13T23:48:47.511Z,37.83
2018-01-13T23:51:14.187Z,33.03
2018-01-13T23:53:40.947Z,35.27
2018-01-13T23:56:07.615Z,35.20
2018-01-13T23:58:33.627Z,30.87
